Time;durP1;ratioP1;P1;durP2;ratioP2;P2;SDS_P1;SDS_P2;PMS_P1;PMS_P2;Temp;Humidity;BMP_temperature;BMP_pressure;BME280_temperature;BME280_humidity;BME280_pressure;Samples;Min_cycle;Max_cycle;Signal;HPM_P1;HPM_P2
2022/08/11 09:03:29;;;;;;;8.50;4.88;;;;;;;30.21;36.30;102359.00;4980288;28;20075;-58
2022/08/11 09:05:59;;;;;;;6.13;4.72;;;;;;;30.46;36.74;102365.00;4994822;28;20535;-56
2022/08/11 09:08:26;;;;;;;8.82;4.43;;;;;;;30.65;33.68;102362.34;5000105;28;21216;-56
2022/08/11 09:13:43;;;;;;;8.50;4.22;;;;;;;30.45;34.84;102354.28;4997711;28;20881;-53
2022/08/11 09:16:09;;;;;;;9.75;4.28;;;;;;;30.84;33.87;102355.16;4990518;28;20041;-53
2022/08/11 09:18:36;;;;;;;8.00;5.10;;;;;;;30.28;32.87;102359.59;4994961;28;20059;-53
2022/08/11 09:21:02;;;;;;;15.43;3.97;;;;;;;30.66;34.62;102358.72;5001029;28;20028;-52
2022/08/11 09:29:03;;;;;;;10.63;4.50;;;;;;;30.36;32.43;102344.84;4989225;28;20051;-54
2022/08/11 09:31:37;;;;;;;7.35;3.67;;;;;;;30.88;31.71;102348.66;4980388;28;20045;-53
2022/08/11 09:34:07;;;;;;;7.18;3.63;;;;;;;30.83;32.72;102337.25;4988297;28;20039;-51
2022/08/11 09:42:05;;;;;;;5.95;3.88;;;;;;;31.20;31.32;102338.16;4992312;28;20052;-55
2022/08/11 09:44:49;;;;;;;6.22;3.70;;;;;;;30.77;31.97;102339.34;5002259;28;20048;-53
2022/08/11 09:47:28;;;;;;;4.80;3.40;;;;;;;31.18;31.71;102332.84;4995544;28;20462;-54
2022/08/11 09:50:02;;;;;;;7.07;3.70;;;;;;;30.81;29.43;102333.75;4994302;28;20041;-54
2022/08/11 09:52:29;;;;;;;6.30;3.58;;;;;;;30.94;32.50;102329.50;5001115;28;20037;-53
2022/08/11 09:54:55;;;;;;;5.18;3.35;;;;;;;31.51;31.60;102318.63;5000964;28;20589;-55
2022/08/11 10:00:49;;;;;;;7.65;3.45;;;;;;;32.21;29.11;102318.50;4949731;28;20050;-53
2022/08/11 10:03:18;;;;;;;9.23;3.85;;;;;;;31.79;27.95;102318.94;4938140;28;20052;-52
2022/08/11 10:08:32;;;;;;;8.18;3.70;;;;;;;31.70;28.87;102308.66;4955853;28;20080;-53
2022/08/11 10:10:58;;;;;;;8.70;3.72;;;;;;;31.75;28.39;102317.38;4971176;28;20486;-53
2022/08/11 10:15:32;;;;;;;14.05;3.60;;;;;;;31.91;28.69;102304.81;4957027;28;20096;-51
2022/08/11 10:16:25;;;;;;;4.75;3.08;;;;;;;32.45;28.47;102306.34;4945579;28;20073;-52
2022/08/11 10:18:53;;;;;;;6.13;3.80;;;;;;;31.75;28.14;102307.47;4962461;28;20034;-54
2022/08/11 10:21:41;;;;;;;9.18;3.55;;;;;;;31.74;28.48;102300.31;4953317;28;20120;-56
2022/08/11 10:26:55;;;;;;;18.40;3.78;;;;;;;32.44;25.17;102295.66;4962525;28;20523;-54
2022/08/11 10:35:08;;;;;;;12.93;3.20;;;;;;;32.98;25.02;102284.44;4967279;28;20107;-55
2022/08/11 10:37:38;;;;;;;5.78;3.10;;;;;;;32.99;24.35;102293.41;4965321;28;20072;-54
2022/08/11 10:40:14;;;;;;;6.47;3.33;;;;;;;32.80;25.64;102290.03;4953313;28;20061;-53
2022/08/11 10:48:10;;;;;;;4.85;2.90;;;;;;;33.01;23.64;102280.66;4961737;28;20189;-54
2022/08/11 10:58:55;;;;;;;7.30;2.40;;;;;;;32.19;22.91;102280.81;4970290;28;20104;-55
2022/08/11 11:01:32;;;;;;;6.60;2.83;;;;;;;31.89;23.96;102271.69;4993591;28;20032;-53
2022/08/11 11:04:06;;;;;;;4.25;2.40;;;;;;;32.38;24.63;102283.38;4995501;28;20071;-57
2022/08/11 11:07:02;;;;;;;4.32;2.78;;;;;;;32.28;23.50;102274.03;4997749;28;20045;-55
2022/08/11 11:09:33;;;;;;;3.92;2.50;;;;;;;33.01;23.45;102265.31;4959554;28;20092;-51
2022/08/11 11:18:17;;;;;;;6.05;2.53;;;;;;;32.84;23.16;102262.75;5006741;28;20055;-55
2022/08/11 11:21:05;;;;;;;7.72;2.55;;;;;;;33.35;22.58;102271.47;5002362;28;20393;-57
2022/08/11 11:23:33;;;;;;;10.18;2.60;;;;;;;33.05;23.60;102271.44;4999286;28;20181;-56
2022/08/11 11:26:38;;;;;;;7.88;2.58;;;;;;;32.06;23.58;102270.75;4987355;28;20424;-54
2022/08/11 11:29:21;;;;;;;4.50;2.75;;;;;;;32.38;24.09;102269.00;4999647;28;20131;-56
2022/08/11 11:32:14;;;;;;;7.45;2.40;;;;;;;33.12;23.56;102266.53;4991221;28;20041;-53
2022/08/11 11:35:11;;;;;;;6.07;2.80;;;;;;;32.36;24.67;102271.78;4998582;28;20600;-55
2022/08/11 11:37:38;;;;;;;6.05;2.75;;;;;;;33.19;23.88;102266.09;5002377;28;20585;-54
2022/08/11 11:40:09;;;;;;;6.68;3.00;;;;;;;32.82;23.74;102261.94;4995224;28;20033;-54
2022/08/11 11:42:37;;;;;;;5.78;2.70;;;;;;;33.13;23.79;102263.72;4997402;28;20047;-53
2022/08/11 11:45:05;;;;;;;5.53;2.83;;;;;;;32.61;24.22;102255.94;4973747;28;20391;-54
2022/08/11 11:47:31;;;;;;;10.57;3.25;;;;;;;33.17;25.54;102264.44;4994457;28;20049;-55
2022/08/11 11:50:13;;;;;;;8.02;2.80;;;;;;;33.03;25.14;102273.34;5003035;28;20041;-54
2022/08/11 11:52:41;;;;;;;5.43;3.08;;;;;;;33.29;24.79;102258.31;4977894;28;20267;-55
2022/08/11 11:55:08;;;;;;;6.13;3.30;;;;;;;33.76;25.77;102255.44;5012087;28;20029;-51
2022/08/11 12:03:09;;;;;;;8.55;3.10;;;;;;;32.87;24.54;102254.47;4997269;28;20043;-51
2022/08/11 12:05:35;;;;;;;6.55;3.05;;;;;;;33.28;25.08;102237.66;4976328;28;20044;-54
2022/08/11 12:08:10;;;;;;;5.70;3.00;;;;;;;33.73;23.94;102234.84;4995799;28;20029;-55
2022/08/11 12:10:38;;;;;;;5.50;3.15;;;;;;;33.53;24.78;102235.19;4997548;28;20057;-53
2022/08/11 12:15:52;;;;;;;7.30;3.10;;;;;;;33.87;24.14;102233.13;5008926;28;20110;-55
2022/08/11 12:18:18;;;;;;;9.90;3.22;;;;;;;33.92;24.58;102245.38;4994960;28;20976;-51
2022/08/11 12:20:46;;;;;;;6.07;2.90;;;;;;;34.04;24.59;102236.47;5010571;28;20514;-54
2022/08/11 12:28:47;;;;;;;8.55;3.03;;;;;;;33.44;25.89;102216.81;5005126;28;20232;-55
2022/08/11 12:31:15;;;;;;;10.60;3.25;;;;;;;33.53;26.43;102226.22;5004405;28;20490;-54
2022/08/11 12:33:42;;;;;;;6.10;3.22;;;;;;;33.21;25.29;102214.66;4990626;28;20053;-53
2022/08/11 12:36:15;;;;;;;5.32;3.50;;;;;;;33.27;25.94;102214.28;4997799;28;20033;-54
2022/08/11 12:38:45;;;;;;;9.00;3.30;;;;;;;33.07;26.89;102223.56;4989045;28;20028;-53
2022/08/11 12:46:48;;;;;;;6.32;2.90;;;;;;;33.62;25.35;102202.16;4994048;28;20534;-55
2022/08/11 12:52:19;;;;;;;6.00;3.15;;;;;;;33.59;25.15;102194.25;4983694;28;20047;-54
2022/08/11 12:54:57;;;;;;;5.43;3.20;;;;;;;33.01;25.92;102200.47;4977367;28;20037;-54
2022/08/11 13:05:54;;;;;;;5.10;3.05;;;;;;;32.65;26.39;102189.13;4998672;28;20098;-54
2022/08/11 13:08:23;;;;;;;7.35;3.10;;;;;;;32.95;25.80;102181.06;4981512;28;20091;-50
2022/08/11 13:13:39;;;;;;;6.65;2.90;;;;;;;32.82;25.64;102174.63;4997014;28;20049;-54
2022/08/11 13:16:06;;;;;;;7.30;3.22;;;;;;;33.23;26.95;102170.38;4971326;28;20045;-53
2022/08/11 13:18:33;;;;;;;4.30;3.20;;;;;;;32.65;26.79;102170.22;4994227;28;20139;-54
2022/08/11 13:20:59;;;;;;;5.35;2.97;;;;;;;33.19;25.36;102165.22;5005081;28;20042;-54
2022/08/11 13:23:28;;;;;;;5.35;2.80;;;;;;;33.42;26.72;102175.50;4988636;28;20773;-54
2022/08/11 13:25:55;;;;;;;4.38;2.67;;;;;;;33.14;25.38;102162.78;5008452;28;20102;-53
2022/08/11 13:28:24;;;;;;;4.05;2.97;;;;;;;32.97;25.66;102163.81;4974252;28;20068;-57
2022/08/11 13:31:10;;;;;;;6.85;3.00;;;;;;;33.18;24.99;102166.19;5002445;28;20781;-57
2022/08/11 13:33:42;;;;;;;6.10;2.90;;;;;;;33.11;24.61;102162.09;4978518;28;20431;-56
2022/08/11 13:36:09;;;;;;;8.60;2.83;;;;;;;33.25;25.05;102173.81;4990392;28;20079;-55
2022/08/11 13:38:36;;;;;;;6.25;2.90;;;;;;;33.70;24.66;102175.53;4996595;28;20299;-54
2022/08/11 13:41:36;;;;;;;8.00;3.05;;;;;;;33.55;24.55;102162.94;4958138;28;20067;-54
2022/08/11 13:43:49;;;;;;;8.00;3.00;;;;;;;33.59;24.54;102161.81;4998128;28;20041;-55
2022/08/11 13:46:19;;;;;;;5.13;2.70;;;;;;;33.49;24.80;102162.44;4976064;28;20392;-52
2022/08/11 13:48:49;;;;;;;8.45;3.03;;;;;;;33.53;24.75;102164.03;4992728;28;20518;-57
2022/08/11 13:51:30;;;;;;;10.35;3.22;;;;;;;32.74;26.60;102158.03;5004171;28;20408;-55
2022/08/11 13:54:02;;;;;;;6.22;3.00;;;;;;;33.07;24.95;102157.81;4994245;28;20802;-55
2022/08/11 13:56:29;;;;;;;8.35;3.22;;;;;;;33.05;25.69;102155.25;4980017;28;21791;-56
2022/08/11 13:58:56;;;;;;;6.00;3.33;;;;;;;33.02;25.48;102159.00;5008602;28;20090;-53
2022/08/11 14:01:30;;;;;;;7.38;3.38;;;;;;;32.84;24.81;102157.41;4950624;28;20451;-53
2022/08/11 14:04:09;;;;;;;10.63;3.33;;;;;;;33.16;24.45;102150.03;4999053;28;20098;-55
2022/08/11 14:06:39;;;;;;;5.85;3.88;;;;;;;33.05;25.71;102144.44;4995828;28;20474;-54
2022/08/11 14:09:08;;;;;;;7.82;4.30;;;;;;;33.28;25.33;102143.91;5009099;28;20609;-52
2022/08/11 14:14:29;;;;;;;6.38;3.20;;;;;;;33.00;27.55;102141.13;5000838;28;20064;-52
2022/08/11 14:17:17;;;;;;;8.55;3.30;;;;;;;32.69;26.22;102135.84;5005265;28;20033;-55
2022/08/11 14:19:46;;;;;;;5.60;3.40;;;;;;;32.69;25.69;102135.84;4953743;28;20052;-53
2022/08/11 14:22:14;;;;;;;4.97;3.58;;;;;;;32.90;27.24;102132.72;4999614;28;20090;-54
2022/08/11 14:24:53;;;;;;;8.23;3.70;;;;;;;32.44;26.57;102133.69;4984827;28;20065;-53
2022/08/11 14:27:30;;;;;;;6.15;4.10;;;;;;;32.80;25.84;102119.88;4969692;28;20044;-54
2022/08/11 14:30:01;;;;;;;14.77;3.30;;;;;;;32.60;26.39;102126.41;4989886;28;20033;-55
2022/08/11 14:32:27;;;;;;;7.80;3.35;;;;;;;32.73;25.96;102115.78;4995574;28;21311;-53
2022/08/11 14:34:54;;;;;;;7.28;3.50;;;;;;;32.99;25.81;102120.50;5008208;28;20494;-55
2022/08/11 14:37:36;;;;;;;6.90;3.15;;;;;;;33.08;25.90;102117.22;4976540;28;20358;-56
2022/08/11 14:47:03;;;;;;;5.18;3.25;;;;;;;33.08;25.06;102117.22;4955046;28;20032;-53
2022/08/11 14:48:19;;;;;;;3.60;3.10;;;;;;;32.84;27.35;102105.19;4950824;28;20282;-55
2022/08/11 14:50:46;;;;;;;5.97;3.20;;;;;;;32.58;25.94;102102.19;5000483;28;20053;-56
2022/08/11 14:53:14;;;;;;;8.57;3.42;;;;;;;32.48;26.25;102105.53;5004666;28;20037;-55
2022/08/11 14:58:28;;;;;;;10.88;3.95;;;;;;;32.28;25.92;102104.00;4973327;28;20064;-56
2022/08/11 15:00:56;;;;;;;6.75;3.80;;;;;;;32.27;25.97;102104.97;5006829;28;20045;-56
2022/08/11 15:03:24;;;;;;;6.28;3.30;;;;;;;32.38;25.20;102097.13;4978758;28;20045;-56
2022/08/11 15:06:06;;;;;;;4.90;3.00;;;;;;;32.66;25.24;102098.19;5004626;28;20076;-55
2022/08/11 15:08:56;;;;;;;5.18;2.90;;;;;;;32.79;25.40;102091.09;5000877;28;20745;-54
2022/08/11 15:14:12;;;;;;;5.03;3.05;;;;;;;33.01;24.98;102089.69;5000771;28;20583;-58
2022/08/11 15:24:18;;;;;;;4.53;3.00;;;;;;;32.70;24.69;102087.13;4983286;28;20060;-58
2022/08/11 15:25:10;;;;;;;7.30;3.10;;;;;;;32.61;25.65;102080.44;5003839;28;20130;-56
2022/08/11 15:38:57;;;;;;;5.20;2.75;;;;;;;32.78;25.71;102076.72;5006123;28;20043;-56
2022/08/11 15:47:32;;;;;;;9.60;2.55;;;;;;;32.79;25.90;102073.06;5000822;28;20948;-55
2022/08/11 15:50:01;;;;;;;11.57;2.72;;;;;;;32.31;26.69;102071.44;4977798;28;20033;-57
2022/08/11 15:52:31;;;;;;;6.68;2.60;;;;;;;32.35;26.24;102064.03;4998238;28;20756;-57
2022/08/11 15:55:01;;;;;;;4.00;2.40;;;;;;;32.19;27.01;102061.38;5009239;28;20061;-56
2022/08/11 16:05:48;;;;;;;5.30;2.60;;;;;;;32.52;25.83;102058.50;5000934;28;20590;-56
2022/08/11 16:08:17;;;;;;;7.95;2.50;;;;;;;32.19;26.67;102064.06;4989429;28;20037;-57
2022/08/11 16:10:43;;;;;;;5.30;2.30;;;;;;;32.29;26.24;102062.56;4981933;28;20060;-56
2022/08/11 16:18:40;;;;;;;7.00;2.70;;;;;;;31.91;26.37;102058.47;4995153;28;20106;-57
2022/08/11 16:21:16;;;;;;;4.95;2.20;;;;;;;32.10;26.78;102049.25;4997098;28;21603;-56
2022/08/11 16:23:45;;;;;;;10.27;3.05;;;;;;;32.08;26.54;102044.91;5005313;28;20037;-56
2022/08/11 16:26:12;;;;;;;6.40;3.53;;;;;;;32.10;26.70;102051.06;4995196;28;20048;-56
2022/08/11 16:28:40;;;;;;;6.22;3.70;;;;;;;32.15;26.82;102046.31;4990582;28;20536;-54
2022/08/11 16:31:09;;;;;;;4.97;2.50;;;;;;;32.26;26.19;102048.41;4979362;28;20040;-57
2022/08/11 16:33:40;;;;;;;7.38;2.70;;;;;;;32.43;26.69;102046.44;4993510;28;20044;-57
2022/08/11 16:38:55;;;;;;;6.95;2.70;;;;;;;31.90;27.71;102048.69;5009354;28;20048;-55
2022/08/11 16:46:59;;;;;;;6.47;2.42;;;;;;;31.98;27.73;102047.25;5002574;28;20106;-55
2022/08/11 16:49:31;;;;;;;8.57;2.38;;;;;;;32.02;27.32;102045.28;5001057;28;20037;-55
2022/08/11 16:52:03;;;;;;;5.72;2.55;;;;;;;31.87;27.48;102041.63;4998437;28;20595;-54
2022/08/11 16:54:34;;;;;;;6.03;2.80;;;;;;;31.98;27.19;102041.00;5003016;28;20459;-55
2022/08/11 17:00:00;;;;;;;4.95;2.70;;;;;;;31.89;28.08;102037.03;4996999;28;20048;-54
2022/08/11 17:13:58;;;;;;;6.53;2.80;;;;;;;31.62;28.66;102028.66;5000237;28;20143;-58
2022/08/11 17:16:38;;;;;;;4.85;2.70;;;;;;;31.73;28.98;102033.44;4974395;28;20037;-57
2022/08/11 17:19:15;;;;;;;6.15;2.50;;;;;;;31.54;28.63;102032.69;4988293;28;20032;-57
2022/08/11 17:24:35;;;;;;;4.38;2.55;;;;;;;31.30;27.98;102025.03;5003536;28;20061;-57
2022/08/11 17:27:04;;;;;;;6.07;2.50;;;;;;;31.68;27.82;102024.75;5001193;28;20439;-57
2022/08/11 17:29:48;;;;;;;7.78;2.70;;;;;;;31.50;28.70;102025.75;5000185;28;20044;-59
2022/08/11 17:35:32;;;;;;;10.45;3.50;;;;;;;31.61;28.97;102015.25;4991879;28;20806;-57
2022/08/11 17:38:16;;;;;;;5.65;2.83;;;;;;;31.32;28.79;102019.56;4987027;28;20124;-56
2022/08/11 17:49:51;;;;;;;4.40;2.20;;;;;;;30.90;29.03;102028.13;4974049;28;20042;-55
2022/08/11 18:00:34;;;;;;;4.43;2.40;;;;;;;30.71;30.05;102024.66;4995312;28;20154;-55
2022/08/11 18:05:48;;;;;;;7.97;2.90;;;;;;;30.72;29.85;102029.97;5002173;28;20091;-56
